createdAt,value
2018-10-05T00:01:37.956Z,101838.34
2018-10-05T00:04:07.441Z,101837.50
2018-10-05T00:06:37.318Z,101832.33
2018-10-05T00:09:10.460Z,101842.79
2018-10-05T00:11:40.908Z,101835.41
2018-10-05T00:14:10.405Z,101837.51
2018-10-05T00:16:39.801Z,101835.77
2018-10-05T00:19:09.205Z,101828.02
2018-10-05T00:21:38.626Z,101830.66
2018-10-05T00:24:08.373Z,101825.38
2018-10-05T00:26:37.805Z,101821.94
2018-10-05T00:29:07.390Z,101823.74
2018-10-05T00:31:36.881Z,101828.09
2018-10-05T00:34:06.267Z,101826.89
2018-10-05T00:36:35.656Z,101823.37
2018-10-05T00:39:06.240Z,101826.45
2018-10-05T00:41:35.720Z,101823.37
2018-10-05T00:44:05.174Z,101815.53
2018-10-05T00:46:34.577Z,101823.02
2018-10-05T00:49:04.091Z,101812.55
2018-10-05T00:51:33.515Z,101813.92
2018-10-05T00:54:03.072Z,101806.11
2018-10-05T00:56:32.693Z,101802.17
2018-10-05T00:59:02.217Z,101800.50
2018-10-05T01:04:00.554Z,101803.54
2018-10-05T01:06:30.016Z,101795.66
2018-10-05T01:08:59.424Z,101792.68
2018-10-05T01:11:28.918Z,101792.68
2018-10-05T01:13:58.305Z,101790.51
2018-10-05T01:16:27.695Z,101789.31
2018-10-05T01:18:57.127Z,101785.37
2018-10-05T01:21:26.522Z,101785.00
2018-10-05T01:23:56.039Z,101786.77
2018-10-05T01:26:25.586Z,101776.42
2018-10-05T01:28:55.111Z,101781.59
2018-10-05T01:31:24.778Z,101777.66
2018-10-05T01:33:54.189Z,101777.66
2018-10-05T01:36:23.825Z,101774.25
2018-10-05T01:38:53.279Z,101762.52
2018-10-05T01:41:22.715Z,101763.83
2018-10-05T01:43:53.176Z,101761.63
2018-10-05T01:46:22.562Z,101759.59
2018-10-05T01:48:51.992Z,101759.59
2018-10-05T01:51:33.722Z,101752.67
2018-10-05T01:54:04.593Z,101749.61
2018-10-05T01:56:34.599Z,101747.53
2018-10-05T01:59:04.377Z,101748.00
2018-10-05T02:01:34.028Z,101745.83
2018-10-05T02:04:04.000Z,101749.44
2018-10-05T02:06:33.411Z,101753.84
2018-10-05T02:09:02.833Z,101746.00
2018-10-05T02:11:32.239Z,101740.88
2018-10-05T02:14:01.688Z,101733.47
2018-10-05T02:16:31.046Z,101738.75
2018-10-05T02:19:00.472Z,101737.48
2018-10-05T02:21:30.108Z,101734.03
2018-10-05T02:23:59.579Z,101731.00
2018-10-05T02:26:29.135Z,101727.19
2018-10-05T02:28:58.754Z,101734.13
2018-10-05T02:31:28.116Z,101731.99
2018-10-05T02:33:57.623Z,101728.05
2018-10-05T02:36:27.088Z,101720.77
2018-10-05T02:38:56.585Z,101718.23
2018-10-05T02:41:26.045Z,101717.27
2018-10-05T02:43:55.529Z,101719.53
2018-10-05T02:46:24.923Z,101714.77
2018-10-05T02:48:54.420Z,101711.70
2018-10-05T02:51:24.044Z,101711.73
2018-10-05T02:53:53.516Z,101695.28
2018-10-05T02:56:22.922Z,101690.81
2018-10-05T02:58:52.325Z,101696.95
2018-10-05T03:01:38.933Z,101685.20
2018-10-05T03:04:09.019Z,101686.54
2018-10-05T03:06:38.541Z,101686.07
2018-10-05T03:09:08.082Z,101688.67
2018-10-05T03:11:37.477Z,101688.30
2018-10-05T03:14:06.885Z,101684.77
2018-10-05T03:16:36.269Z,101676.00
2018-10-05T03:19:06.419Z,101680.00
2018-10-05T03:21:35.900Z,101675.30
2018-10-05T03:24:06.060Z,101676.53
2018-10-05T03:26:35.451Z,101671.72
2018-10-05T03:29:04.932Z,101668.75
2018-10-05T03:31:34.438Z,101672.22
2018-10-05T03:34:03.843Z,101669.19
2018-10-05T03:36:33.267Z,101672.29
2018-10-05T03:39:02.748Z,101671.05
2018-10-05T03:41:32.134Z,101664.95
2018-10-05T03:44:01.574Z,101670.16
2018-10-05T03:46:31.616Z,101667.58
2018-10-05T03:49:01.136Z,101663.67
2018-10-05T03:51:30.561Z,101664.98
2018-10-05T03:53:59.988Z,101661.08
2018-10-05T03:56:29.591Z,101659.77
2018-10-05T03:58:59.006Z,101655.47
2018-10-05T04:01:28.367Z,101653.40
2018-10-05T04:03:58.124Z,101652.90
2018-10-05T04:06:27.507Z,101654.63
2018-10-05T04:08:56.907Z,101653.77
2018-10-05T04:11:26.389Z,101648.06
2018-10-05T04:13:55.808Z,101643.73
2018-10-05T04:16:25.252Z,101641.59
2018-10-05T04:18:54.623Z,101643.36
2018-10-05T04:21:24.053Z,101635.12
2018-10-05T04:23:53.449Z,101631.28
2018-10-05T04:26:22.848Z,101628.71
2018-10-05T04:28:52.279Z,101630.05
2018-10-05T04:31:21.655Z,101629.23
2018-10-05T04:33:51.072Z,101622.73
2018-10-05T04:36:20.577Z,101618.00
2018-10-05T04:38:50.262Z,101614.06
2018-10-05T04:41:19.719Z,101611.53
2018-10-05T04:43:49.134Z,101611.56
2018-10-05T04:46:18.749Z,101609.36
2018-10-05T04:48:48.662Z,101598.89
2018-10-05T04:51:18.075Z,101600.53
2018-10-05T04:53:47.459Z,101604.03
2018-10-05T04:56:16.872Z,101598.39
2018-10-05T04:58:46.295Z,101593.25
2018-10-05T05:01:15.756Z,101595.39
2018-10-05T05:03:45.148Z,101592.39
2018-10-05T05:06:14.520Z,101589.42
2018-10-05T05:08:43.979Z,101595.92
2018-10-05T05:11:13.387Z,101591.48
2018-10-05T05:13:42.747Z,101598.95
2018-10-05T05:16:12.268Z,101600.72
2018-10-05T05:18:41.671Z,101592.38
2018-10-05T05:21:11.121Z,101600.19
2018-10-05T05:23:40.480Z,101598.95
2018-10-05T05:26:09.893Z,101592.92
2018-10-05T05:28:39.286Z,101595.05
2018-10-05T05:31:08.687Z,101598.95
2018-10-05T05:33:38.213Z,101596.05
2018-10-05T05:36:09.119Z,101594.72
2018-10-05T05:38:38.691Z,101590.38
2018-10-05T05:41:08.161Z,101592.08
2018-10-05T05:43:37.632Z,101591.27
2018-10-05T05:46:07.083Z,101587.01
2018-10-05T05:48:36.541Z,101586.60
2018-10-05T05:51:05.975Z,101588.67
2018-10-05T05:53:35.903Z,101588.28
2018-10-05T05:56:05.367Z,101588.18
2018-10-05T05:58:34.893Z,101587.34
2018-10-05T06:01:08.444Z,101597.31
2018-10-05T06:03:39.019Z,101591.22
2018-10-05T06:06:08.644Z,101594.62
2018-10-05T06:08:38.047Z,101591.22
2018-10-05T06:11:08.360Z,101592.92
2018-10-05T06:13:37.774Z,101590.16
2018-10-05T06:16:07.532Z,101582.11
2018-10-05T06:18:37.095Z,101584.14
2018-10-05T06:21:06.720Z,101581.56
2018-10-05T06:23:36.210Z,101586.97
2018-10-05T06:26:05.763Z,101588.38
2018-10-05T06:28:35.151Z,101586.22
2018-10-05T06:31:04.790Z,101576.13
2018-10-05T06:33:34.181Z,101574.97
2018-10-05T06:36:03.637Z,101566.45
2018-10-05T06:38:33.349Z,101575.06
2018-10-05T06:41:02.912Z,101570.20
2018-10-05T06:43:32.305Z,101578.93
2018-10-05T06:46:01.741Z,101581.92
2018-10-05T06:48:31.159Z,101578.02
2018-10-05T06:51:00.647Z,101574.93
2018-10-05T06:53:30.246Z,101573.70
2018-10-05T06:55:59.793Z,101582.52
2018-10-05T06:58:29.156Z,101572.09
2018-10-05T07:00:58.596Z,101579.65
2018-10-05T07:03:27.972Z,101584.75
2018-10-05T07:05:57.464Z,101573.00
2018-10-05T07:08:26.911Z,101571.47
2018-10-05T07:10:56.417Z,101571.22
2018-10-05T07:13:25.829Z,101568.68
2018-10-05T07:15:55.403Z,101561.83
2018-10-05T07:18:24.737Z,101568.67
2018-10-05T07:20:54.274Z,101571.91
2018-10-05T07:23:23.676Z,101563.48
2018-10-05T07:25:53.092Z,101569.19
2018-10-05T07:28:22.594Z,101563.27
2018-10-05T07:30:51.985Z,101573.91
2018-10-05T07:33:21.461Z,101558.13
2018-10-05T07:35:50.908Z,101574.46
2018-10-05T07:38:20.325Z,101565.02
2018-10-05T07:40:49.917Z,101561.99
2018-10-05T07:43:19.482Z,101551.11
2018-10-05T07:45:48.924Z,101557.58
2018-10-05T07:48:18.480Z,101557.23
2018-10-05T07:50:48.511Z,101556.02
2018-10-05T07:53:18.574Z,101558.69
2018-10-05T07:55:48.143Z,101560.86
2018-10-05T07:58:17.651Z,101568.09
2018-10-05T08:00:47.674Z,101572.40
2018-10-05T08:03:17.345Z,101572.92
2018-10-05T08:05:46.877Z,101573.49
2018-10-05T08:08:16.305Z,101569.05
2018-10-05T08:10:45.803Z,101567.42
2018-10-05T08:13:15.308Z,101570.50
2018-10-05T08:15:44.707Z,101569.88
2018-10-05T08:18:14.152Z,101565.58
2018-10-05T08:20:43.615Z,101565.39
2018-10-05T08:23:13.033Z,101555.00
2018-10-05T08:25:42.695Z,101553.88
2018-10-05T08:28:12.238Z,101567.33
2018-10-05T08:30:42.123Z,101558.52
2018-10-05T08:33:11.556Z,101552.70
2018-10-05T08:35:40.966Z,101553.27
2018-10-05T08:38:10.872Z,101554.20
2018-10-05T08:40:40.265Z,101542.15
2018-10-05T08:43:10.811Z,101543.32
2018-10-05T08:45:40.914Z,101539.36
2018-10-05T08:48:10.337Z,101535.12
2018-10-05T08:50:39.791Z,101541.95
2018-10-05T08:53:09.245Z,101534.78
2018-10-05T08:55:38.783Z,101533.77
2018-10-05T08:58:08.257Z,101535.55
2018-10-05T09:00:37.851Z,101534.81
2018-10-05T09:03:07.246Z,101530.98
2018-10-05T09:05:36.700Z,101519.15
2018-10-05T09:08:06.930Z,101519.03
2018-10-05T09:10:36.407Z,101515.06
2018-10-05T09:13:06.046Z,101512.93
2018-10-05T09:15:36.212Z,101513.34
2018-10-05T09:18:05.871Z,101501.28
2018-10-05T09:20:35.352Z,101500.83
2018-10-05T09:23:05.041Z,101501.52
2018-10-05T09:25:35.516Z,101501.67
2018-10-05T09:28:04.951Z,101488.13
2018-10-05T09:30:34.504Z,101482.53
2018-10-05T09:33:03.906Z,101487.33
2018-10-05T09:35:33.412Z,101476.62
2018-10-05T09:38:03.132Z,101473.27
2018-10-05T09:40:32.630Z,101468.48
2018-10-05T09:43:02.585Z,101476.05
2018-10-05T09:45:32.030Z,101470.58
2018-10-05T09:48:01.565Z,101448.83
2018-10-05T09:50:31.621Z,101455.07
2018-10-05T09:53:01.079Z,101436.84
2018-10-05T09:55:30.626Z,101433.50
2018-10-05T09:58:00.393Z,101425.55
2018-10-05T10:00:35.508Z,101424.81
2018-10-05T10:03:10.274Z,101427.18
2018-10-05T10:05:39.740Z,101421.59
2018-10-05T10:08:10.308Z,101420.27
2018-10-05T10:10:39.711Z,101414.20
2018-10-05T10:13:09.195Z,101406.13
2018-10-05T10:15:38.627Z,101414.05
2018-10-05T10:18:08.604Z,101409.57
2018-10-05T10:20:38.146Z,101407.54
2018-10-05T10:23:07.613Z,101409.31
2018-10-05T10:25:37.074Z,101406.81
2018-10-05T10:28:06.882Z,101407.36
2018-10-05T10:30:36.453Z,101401.45
2018-10-05T10:33:06.034Z,101401.53
2018-10-05T10:35:36.085Z,101401.77
2018-10-05T10:38:05.699Z,101389.89
2018-10-05T10:40:35.138Z,101388.32
2018-10-05T10:43:04.568Z,101383.11
2018-10-05T10:45:34.022Z,101382.21
2018-10-05T10:48:03.632Z,101374.29
2018-10-05T10:50:33.140Z,101373.99
2018-10-05T10:53:02.719Z,101362.84
2018-10-05T10:55:32.636Z,101349.83
2018-10-05T10:58:02.123Z,101346.44
2018-10-05T11:00:31.605Z,101342.67
2018-10-05T11:03:01.073Z,101338.08
2018-10-05T11:05:30.561Z,101335.89
2018-10-05T11:08:00.018Z,101332.72
2018-10-05T11:10:30.113Z,101328.13
2018-10-05T11:12:59.572Z,101323.22
2018-10-05T11:15:29.024Z,101311.89
2018-10-05T11:17:58.427Z,101305.06
2018-10-05T11:20:27.865Z,101301.20
2018-10-05T11:22:57.267Z,101306.52
2018-10-05T11:25:26.951Z,101291.64
2018-10-05T11:27:56.335Z,101281.43
2018-10-05T11:30:25.782Z,101283.99
2018-10-05T11:32:55.474Z,101277.25
2018-10-05T11:35:24.907Z,101282.94
2018-10-05T11:37:54.448Z,101270.34
2018-10-05T11:40:23.899Z,101271.78
2018-10-05T11:42:53.354Z,101264.00
2018-10-05T11:45:23.395Z,101264.38
2018-10-05T11:47:52.864Z,101259.73
2018-10-05T11:50:22.323Z,101253.59
2018-10-05T11:52:51.807Z,101257.23
2018-10-05T11:55:21.272Z,101250.36
2018-10-05T11:57:50.771Z,101248.81
2018-10-05T12:00:20.301Z,101252.08
2018-10-05T12:02:49.722Z,101246.75
2018-10-05T12:05:19.265Z,101240.45
2018-10-05T12:07:49.611Z,101239.22
2018-10-05T12:10:19.039Z,101237.11
2018-10-05T12:12:48.516Z,101230.15
2018-10-05T12:15:17.920Z,101236.06
2018-10-05T12:17:47.308Z,101219.70
2018-10-05T12:20:16.817Z,101216.28
2018-10-05T12:22:46.309Z,101206.69
2018-10-05T12:25:15.811Z,101201.41
2018-10-05T12:27:45.215Z,101197.91
2018-10-05T12:30:14.732Z,101196.23
2018-10-05T12:32:44.099Z,101196.88
2018-10-05T12:35:14.017Z,101193.10
2018-10-05T12:37:43.468Z,101191.49
2018-10-05T12:40:13.067Z,101187.92
2018-10-05T12:42:42.492Z,101182.39
2018-10-05T12:45:11.939Z,101186.98
2018-10-05T12:47:41.340Z,101192.30
2018-10-05T12:50:10.840Z,101190.20
2018-10-05T12:52:40.642Z,101180.69
2018-10-05T12:55:10.619Z,101176.08
2018-10-05T12:57:40.565Z,101172.20
2018-10-05T13:00:10.017Z,101173.06
2018-10-05T13:02:39.434Z,101178.16
2018-10-05T13:05:09.272Z,101165.47
2018-10-05T13:07:38.959Z,101164.66
2018-10-05T13:10:08.430Z,101160.59
2018-10-05T13:12:37.927Z,101161.23
2018-10-05T13:15:07.576Z,101152.98
2018-10-05T13:17:37.047Z,101156.50
2018-10-05T13:20:06.503Z,101141.55
2018-10-05T13:22:37.252Z,101146.11
2018-10-05T13:25:06.738Z,101142.06
2018-10-05T13:27:36.161Z,101141.89
2018-10-05T13:30:06.715Z,101143.77
2018-10-05T13:32:36.297Z,101136.70
2018-10-05T13:35:05.918Z,101137.73
2018-10-05T13:37:35.362Z,101121.78
2018-10-05T13:40:05.002Z,101105.13
2018-10-05T13:42:34.520Z,101108.39
2018-10-05T13:45:03.957Z,101099.17
2018-10-05T13:47:33.460Z,101101.49
2018-10-05T13:50:02.973Z,101090.46
2018-10-05T13:52:32.385Z,101092.61
2018-10-05T13:55:01.833Z,101088.53
2018-10-05T13:57:31.339Z,101080.42
2018-10-05T14:00:00.738Z,101072.48
2018-10-05T14:02:30.462Z,101076.41
2018-10-05T14:04:59.988Z,101070.92
2018-10-05T14:07:29.471Z,101069.30
2018-10-05T14:09:59.023Z,101059.86
2018-10-05T14:12:28.429Z,101059.63
2018-10-05T14:14:57.906Z,101063.29
2018-10-05T14:17:27.562Z,101058.92
2018-10-05T14:19:57.203Z,101062.20
2018-10-05T14:22:26.712Z,101052.69
2018-10-05T14:24:56.253Z,101059.43
2018-10-05T14:27:25.671Z,101053.63
2018-10-05T14:29:55.179Z,101055.93
2018-10-05T14:32:24.838Z,101054.33
2018-10-05T14:34:54.333Z,101043.95
2018-10-05T14:37:23.783Z,101051.56
2018-10-05T14:39:53.870Z,101037.05
2018-10-05T14:42:23.373Z,101033.14
2018-10-05T14:44:52.895Z,101024.10
2018-10-05T14:47:22.386Z,101029.34
2018-10-05T14:49:51.994Z,101027.82
2018-10-05T14:52:25.552Z,101022.73
2018-10-05T14:54:56.585Z,101019.50
2018-10-05T14:57:25.990Z,101014.16
2018-10-05T14:59:55.433Z,101011.00
2018-10-05T15:02:24.870Z,100998.55
2018-10-05T15:04:54.769Z,101000.70
2018-10-05T15:07:24.495Z,100995.84
2018-10-05T15:09:54.181Z,100995.36
2018-10-05T15:12:23.568Z,100993.09
2018-10-05T15:14:53.024Z,100989.19
2018-10-05T15:17:22.728Z,100978.42
2018-10-05T15:19:52.225Z,100975.46
2018-10-05T15:22:21.785Z,100975.63
2018-10-05T15:24:52.080Z,100968.78
2018-10-05T15:27:22.150Z,100968.23
2018-10-05T15:29:54.543Z,100974.52
2018-10-05T15:32:24.046Z,100975.94
2018-10-05T15:34:53.667Z,100971.86
2018-10-05T15:37:23.060Z,100966.11
2018-10-05T15:39:52.483Z,100968.72
2018-10-05T15:42:21.980Z,100962.08
2018-10-05T15:44:51.997Z,100963.27
2018-10-05T15:47:21.495Z,100963.47
2018-10-05T15:49:51.282Z,100965.92
2018-10-05T15:52:20.753Z,100968.37
2018-10-05T15:54:50.218Z,100964.80
2018-10-05T15:57:19.686Z,100961.74
2018-10-05T15:59:49.145Z,100962.95
2018-10-05T16:02:18.555Z,100962.61
2018-10-05T16:04:48.022Z,100969.15
2018-10-05T16:07:17.560Z,100971.86
2018-10-05T16:09:46.972Z,100967.31
2018-10-05T16:12:16.504Z,100976.44
2018-10-05T16:14:45.869Z,100972.38
2018-10-05T16:17:15.338Z,100968.84
2018-10-05T16:19:44.797Z,100966.96
2018-10-05T16:22:14.246Z,100978.60
2018-10-05T16:24:45.039Z,100974.28
2018-10-05T16:27:14.763Z,100975.42
2018-10-05T16:29:44.154Z,100974.09
2018-10-05T16:32:13.733Z,100981.27
2018-10-05T16:34:43.425Z,100980.49
2018-10-05T16:37:13.258Z,100979.92
2018-10-05T16:39:43.419Z,100976.10
2018-10-05T16:42:13.249Z,100970.34
2018-10-05T16:44:43.108Z,100969.92
2018-10-05T16:47:12.725Z,100972.02
2018-10-05T16:49:42.354Z,100968.13
2018-10-05T16:52:12.876Z,100963.54
2018-10-05T16:54:43.033Z,100969.87
2018-10-05T16:57:13.204Z,100966.41
2018-10-05T16:59:44.083Z,100963.45
